KLUL/LUL METAR and TAF weather

Enter ICAO airport designator
Station Type Date Time Source
KLUL METAR 2020/04/09 10:15 UTC NOAA

KLUL 091015Z AUTO 27005KT 7SM BR OVC010 22/21 A2981 RMK A02 T02200211


Station Type Date Time Source
KLUL Decoded METAR 2020/04/09 10:15 UTC NOAA

Station name not available
Apr 09, 2020 - 06:15 AM EDT / 2020.04.09 1015 UTC
Wind: from the W (270 degrees) at 6 MPH (5 KT):0
Visibility: 7 mile(s):0
Sky conditions: overcast
Weather: mist
Temperature: 71.6 F (22.0 C)
Dew Point: 70.0 F (21.1 C)
Relative Humidity: 94%
Pressure (altimeter): 29.81 in. Hg (1009 hPa)
ob: KLUL 091015Z AUTO 27005KT 7SM BR OVC010 22/21 A2981 RMK A02 T02200211
cycle: 10

Station Type Date Time Source
KLUL TAF UTC NOAA

Error!

Example: see airport list